Time;durP1;ratioP1;P1;durP2;ratioP2;P2;SDS_P1;SDS_P2;PMS_P1;PMS_P2;Temp;Humidity;BMP_temperature;BMP_pressure;BME280_temperature;BME280_humidity;BME280_pressure;Samples;Min_cycle;Max_cycle;Signal;HPM_P1;HPM_P2
2023/12/07 00:00:53;;;;;;;6.78;4.07;;;5.40;99.90;;;;;;5027374;28;20646;-74
2023/12/07 00:03:21;;;;;;;3.45;3.03;;;5.30;99.90;;;;;;4994400;28;20229;-74
2023/12/07 00:05:50;;;;;;;4.22;3.75;;;5.30;99.90;;;;;;5020750;28;20664;-71
2023/12/07 00:08:18;;;;;;;5.22;3.35;;;5.30;99.90;;;;;;5027935;28;20616;-74
2023/12/07 00:10:45;;;;;;;5.15;3.60;;;5.10;99.90;;;;;;5019217;28;20209;-74
2023/12/07 00:13:13;;;;;;;3.50;3.17;;;5.10;99.90;;;;;;5024204;28;20223;-74
2023/12/07 00:15:41;;;;;;;4.38;3.97;;;5.10;99.90;;;;;;5033550;28;20659;-74
2023/12/07 00:18:10;;;;;;;4.03;3.63;;;5.20;99.90;;;;;;5033827;28;20208;-74
2023/12/07 00:20:38;;;;;;;4.30;3.90;;;5.30;99.90;;;;;;5033444;28;20212;-73
2023/12/07 00:23:07;;;;;;;4.00;3.70;;;5.30;99.90;;;;;;5025429;28;20228;-74
2023/12/07 00:25:35;;;;;;;3.58;3.28;;;5.30;99.90;;;;;;5028769;28;20211;-74
2023/12/07 00:28:05;;;;;;;4.35;3.95;;;5.30;99.90;;;;;;5033394;28;20689;-74
2023/12/07 00:30:33;;;;;;;3.30;2.80;;;5.30;99.90;;;;;;5030590;28;20327;-72
2023/12/07 00:33:01;;;;;;;3.40;3.10;;;5.30;99.90;;;;;;4996899;28;20242;-74
2023/12/07 00:35:29;;;;;;;7.30;3.80;;;5.30;99.90;;;;;;5027384;28;20204;-74
2023/12/07 00:37:57;;;;;;;4.32;3.80;;;5.30;99.90;;;;;;5031769;28;20208;-74
2023/12/07 00:40:26;;;;;;;5.25;4.72;;;5.30;99.90;;;;;;5033031;28;20225;-73
2023/12/07 00:42:55;;;;;;;4.70;4.07;;;5.40;99.90;;;;;;5024531;28;20233;-73
2023/12/07 00:45:23;;;;;;;5.25;4.13;;;5.30;99.90;;;;;;5028856;28;20336;-73
2023/12/07 00:47:50;;;;;;;4.20;3.90;;;5.30;99.90;;;;;;5021201;28;20209;-73
2023/12/07 00:50:18;;;;;;;4.55;3.75;;;5.30;99.90;;;;;;5029130;28;20215;-73
2023/12/07 00:52:46;;;;;;;5.10;3.80;;;5.20;99.90;;;;;;5029224;28;20235;-73
2023/12/07 00:55:15;;;;;;;5.15;3.65;;;5.20;99.90;;;;;;5008195;28;20204;-73
2023/12/07 00:57:44;;;;;;;5.00;3.80;;;5.30;99.90;;;;;;5024207;28;20213;-74
2023/12/07 01:00:13;;;;;;;4.38;3.38;;;5.30;99.90;;;;;;5032476;28;20221;-73
2023/12/07 01:02:41;;;;;;;3.83;3.53;;;5.30;99.90;;;;;;5015405;28;20396;-73
2023/12/07 01:05:10;;;;;;;3.75;3.42;;;5.30;99.90;;;;;;5016364;28;20663;-74
2023/12/07 01:07:38;;;;;;;4.90;3.90;;;5.30;99.90;;;;;;5026376;28;20209;-75
2023/12/07 01:10:07;;;;;;;3.67;3.38;;;5.30;99.90;;;;;;5031294;28;20208;-74
2023/12/07 01:12:35;;;;;;;3.85;3.45;;;5.40;99.90;;;;;;5031806;28;20299;-75
2023/12/07 01:15:06;;;;;;;5.00;3.58;;;5.40;99.90;;;;;;5030435;28;20628;-73
2023/12/07 01:17:34;;;;;;;3.67;3.38;;;5.40;99.90;;;;;;5027126;28;20582;-75
2023/12/07 01:20:03;;;;;;;4.10;3.70;;;5.40;99.90;;;;;;5032283;28;20625;-76
2023/12/07 01:22:31;;;;;;;3.67;3.25;;;5.30;99.90;;;;;;5026307;28;20224;-75
2023/12/07 01:24:59;;;;;;;3.95;3.53;;;5.20;99.90;;;;;;5032242;28;20205;-75
2023/12/07 01:27:27;;;;;;;3.45;3.15;;;5.20;99.90;;;;;;5029677;28;20601;-75
2023/12/07 01:29:55;;;;;;;3.45;3.10;;;5.20;99.90;;;;;;5032161;28;20204;-75
2023/12/07 01:32:25;;;;;;;4.00;2.97;;;5.20;99.90;;;;;;5001733;28;20694;-74
2023/12/07 01:34:53;;;;;;;2.90;2.65;;;5.20;99.90;;;;;;5017417;28;20208;-76
2023/12/07 01:37:21;;;;;;;3.42;3.13;;;5.30;99.90;;;;;;5024713;28;20200;-77
2023/12/07 01:39:49;;;;;;;3.20;2.90;;;5.30;99.90;;;;;;5032535;28;20212;-76
2023/12/07 01:42:17;;;;;;;3.30;3.00;;;5.30;99.90;;;;;;5027609;28;20224;-77
2023/12/07 01:44:45;;;;;;;4.07;3.50;;;5.40;99.90;;;;;;5032435;28;20216;-77
2023/12/07 01:47:13;;;;;;;3.70;3.40;;;5.30;99.90;;;;;;5023633;28;20216;-76
2023/12/07 01:49:42;;;;;;;3.53;3.20;;;5.20;99.90;;;;;;5032304;28;20273;-76
2023/12/07 01:52:12;;;;;;;4.43;2.70;;;5.20;99.90;;;;;;5023841;28;20217;-76
2023/12/07 01:54:40;;;;;;;3.60;3.10;;;5.20;99.90;;;;;;5026094;28;20243;-77
2023/12/07 01:57:08;;;;;;;3.65;3.15;;;5.20;99.90;;;;;;5029261;28;20204;-77
2023/12/07 01:59:36;;;;;;;3.10;2.80;;;5.20;99.90;;;;;;5026853;28;20205;-76
2023/12/07 02:02:04;;;;;;;3.40;2.60;;;5.20;99.90;;;;;;5008212;28;20288;-76
2023/12/07 02:04:32;;;;;;;4.60;3.25;;;5.30;99.90;;;;;;5009957;28;20205;-77
2023/12/07 02:07:03;;;;;;;2.30;2.17;;;5.20;99.90;;;;;;5030515;28;20679;-76
2023/12/07 02:09:32;;;;;;;3.70;2.80;;;5.20;99.90;;;;;;5025921;28;20667;-77
2023/12/07 02:12:00;;;;;;;2.17;2.08;;;5.20;99.90;;;;;;5024042;28;20225;-76
2023/12/07 02:14:28;;;;;;;2.70;2.50;;;5.10;99.90;;;;;;5031904;28;20211;-77
2023/12/07 02:17:02;;;;;;;2.85;2.55;;;5.20;99.90;;;;;;5031227;28;20216;-77
2023/12/07 02:19:52;;;;;;;2.88;2.50;;;5.20;99.90;;;;;;5031908;28;20230;-76
2023/12/07 02:22:28;;;;;;;2.55;2.22;;;5.10;99.90;;;;;;5014643;28;20303;-76
2023/12/07 02:25:07;;;;;;;2.10;1.95;;;4.90;99.90;;;;;;5027953;28;20228;-75
2023/12/07 02:27:40;;;;;;;4.80;2.28;;;4.90;99.90;;;;;;5017229;28;20209;-75
2023/12/07 02:30:10;;;;;;;2.30;2.10;;;4.90;99.90;;;;;;5030044;28;20208;-77
2023/12/07 02:32:38;;;;;;;2.80;2.53;;;4.80;99.90;;;;;;4996904;28;20237;-77
2023/12/07 02:35:08;;;;;;;2.88;2.67;;;4.90;99.90;;;;;;5011733;28;20209;-74
2023/12/07 02:37:42;;;;;;;2.50;2.30;;;4.90;99.90;;;;;;5027111;28;20216;-74
2023/12/07 02:40:11;;;;;;;2.00;1.75;;;5.00;99.90;;;;;;5030899;28;20672;-74
2023/12/07 02:42:42;;;;;;;2.55;2.30;;;4.90;99.90;;;;;;5031033;28;20236;-74
2023/12/07 02:45:11;;;;;;;2.63;2.33;;;4.90;99.90;;;;;;5030739;28;20211;-74
2023/12/07 02:47:40;;;;;;;2.08;1.90;;;4.90;99.90;;;;;;5030787;28;20215;-75
2023/12/07 02:50:09;;;;;;;2.60;2.40;;;5.00;99.90;;;;;;5010882;28;20209;-77
2023/12/07 02:52:37;;;;;;;3.20;2.58;;;5.00;99.90;;;;;;5016312;28;20217;-77
2023/12/07 02:55:05;;;;;;;1.48;1.35;;;5.20;99.90;;;;;;5028924;28;20212;-73
2023/12/07 02:57:34;;;;;;;2.90;2.30;;;5.20;99.90;;;;;;5022608;28;20299;-74
2023/12/07 03:00:06;;;;;;;2.70;2.40;;;5.20;99.90;;;;;;5022457;28;20219;-74
2023/12/07 03:02:35;;;;;;;1.90;1.67;;;5.20;99.90;;;;;;5006100;28;20592;-74
2023/12/07 03:05:03;;;;;;;2.10;1.90;;;5.30;99.90;;;;;;5010258;28;20212;-70
2023/12/07 03:07:31;;;;;;;2.17;2.00;;;5.10;99.90;;;;;;5023121;28;20212;-72
2023/12/07 03:09:59;;;;;;;3.38;2.45;;;5.00;99.90;;;;;;5030407;28;20232;-74
2023/12/07 03:12:27;;;;;;;2.95;2.33;;;5.00;99.90;;;;;;5030692;28;20232;-74
2023/12/07 03:14:55;;;;;;;3.42;3.13;;;4.90;99.90;;;;;;5030816;28;20216;-74
2023/12/07 03:17:24;;;;;;;2.47;2.28;;;4.70;99.90;;;;;;5026309;28;20275;-75
2023/12/07 03:19:52;;;;;;;4.47;3.25;;;4.20;99.90;;;;;;5027215;28;20323;-75
2023/12/07 03:22:20;;;;;;;3.35;3.00;;;4.20;99.90;;;;;;5019839;28;20316;-75
2023/12/07 03:24:51;;;;;;;3.20;2.90;;;4.20;99.90;;;;;;5035853;28;20208;-75
2023/12/07 03:27:20;;;;;;;5.35;3.05;;;4.30;99.90;;;;;;5017222;28;20204;-76
2023/12/07 03:29:48;;;;;;;3.65;3.35;;;4.40;99.90;;;;;;5033045;28;20208;-75
2023/12/07 03:32:16;;;;;;;2.95;2.22;;;4.40;99.90;;;;;;5008909;28;20233;-75
2023/12/07 03:34:45;;;;;;;2.55;2.33;;;4.40;99.90;;;;;;5011668;28;20216;-75
2023/12/07 03:37:13;;;;;;;2.80;2.35;;;4.30;99.90;;;;;;5033365;28;20218;-73
2023/12/07 03:39:41;;;;;;;2.50;2.30;;;4.40;99.90;;;;;;5029017;28;20291;-73
2023/12/07 03:42:09;;;;;;;2.95;2.65;;;4.40;99.90;;;;;;5034452;28;20230;-73
2023/12/07 03:44:57;;;;;;;2.42;2.22;;;4.20;99.90;;;;;;5026053;28;20287;-73
2023/12/07 03:47:25;;;;;;;3.95;2.83;;;4.20;99.90;;;;;;5028598;28;20204;-73
2023/12/07 03:49:54;;;;;;;3.67;2.70;;;4.20;99.90;;;;;;5028814;28;20208;-73
2023/12/07 03:52:22;;;;;;;3.28;2.72;;;3.80;99.90;;;;;;5031335;28;20220;-73
2023/12/07 03:54:51;;;;;;;3.47;2.70;;;3.70;99.90;;;;;;5036988;28;20213;-76
2023/12/07 03:57:18;;;;;;;2.40;2.20;;;3.50;99.90;;;;;;5028171;28;20577;-75
2023/12/07 03:59:46;;;;;;;4.03;3.05;;;3.30;99.90;;;;;;5029734;28;20271;-76
2023/12/07 04:02:14;;;;;;;4.35;2.78;;;3.40;99.90;;;;;;5014083;28;20319;-76
2023/12/07 04:04:42;;;;;;;4.25;2.50;;;3.50;99.90;;;;;;5028573;28;20557;-74
2023/12/07 04:07:12;;;;;;;2.97;2.63;;;3.60;99.90;;;;;;5028597;28;20627;-76
2023/12/07 04:09:40;;;;;;;2.72;2.53;;;3.80;99.90;;;;;;5037107;28;20620;-76
2023/12/07 04:12:08;;;;;;;5.97;3.35;;;3.70;99.90;;;;;;5036683;28;20234;-73
2023/12/07 04:14:35;;;;;;;2.85;2.65;;;3.70;99.90;;;;;;5036854;28;20212;-75
2023/12/07 04:17:04;;;;;;;3.20;2.92;;;3.80;99.90;;;;;;5028137;28;20201;-73
2023/12/07 04:19:32;;;;;;;4.90;3.45;;;3.90;99.90;;;;;;5036556;28;20242;-75
2023/12/07 04:22:00;;;;;;;5.60;3.13;;;4.00;99.90;;;;;;5034751;28;20232;-78
2023/12/07 04:24:29;;;;;;;3.58;3.28;;;4.10;99.90;;;;;;5032384;28;20606;-76
2023/12/07 04:26:57;;;;;;;4.38;2.67;;;4.10;99.90;;;;;;5024752;28;20202;-75
2023/12/07 04:29:25;;;;;;;3.42;3.13;;;4.20;99.90;;;;;;5028518;28;20586;-76
2023/12/07 04:31:53;;;;;;;5.97;3.80;;;4.20;99.90;;;;;;5022806;28;20239;-75
2023/12/07 04:34:21;;;;;;;5.47;3.15;;;4.20;99.90;;;;;;5008978;28;20628;-76
2023/12/07 04:36:50;;;;;;;3.55;2.95;;;4.40;99.90;;;;;;5015652;28;20221;-75
2023/12/07 04:39:17;;;;;;;4.18;3.17;;;4.20;99.90;;;;;;5019177;28;20205;-75
2023/12/07 04:41:47;;;;;;;4.15;2.95;;;4.20;99.90;;;;;;5018711;28;20225;-75
2023/12/07 04:44:15;;;;;;;4.65;3.70;;;4.30;99.90;;;;;;5018904;28;20209;-75
2023/12/07 04:46:43;;;;;;;4.45;3.35;;;4.10;99.90;;;;;;5019540;28;20212;-74
2023/12/07 04:49:11;;;;;;;3.85;3.47;;;3.80;99.90;;;;;;5032937;28;20679;-74
2023/12/07 04:51:41;;;;;;;4.88;3.40;;;3.70;99.90;;;;;;5027941;28;20236;-74
2023/12/07 04:54:09;;;;;;;5.53;4.43;;;3.70;99.90;;;;;;5032993;28;20204;-75
2023/12/07 04:56:48;;;;;;;5.70;5.07;;;3.70;99.90;;;;;;5032930;28;20208;-74
2023/12/07 04:59:17;;;;;;;5.80;4.28;;;3.40;99.90;;;;;;5016179;28;20276;-75
2023/12/07 05:01:45;;;;;;;5.85;5.32;;;3.50;99.90;;;;;;5007359;28;20221;-76
2023/12/07 05:04:14;;;;;;;5.80;4.40;;;3.70;99.90;;;;;;4996539;28;20233;-73
2023/12/07 05:06:42;;;;;;;5.00;4.50;;;3.90;99.90;;;;;;5027414;28;20236;-74
2023/12/07 05:09:10;;;;;;;4.75;3.65;;;4.00;99.90;;;;;;5029689;28;20204;-75
2023/12/07 05:11:38;;;;;;;5.35;4.53;;;4.10;99.90;;;;;;5032554;28;20279;-74
2023/12/07 05:14:07;;;;;;;7.70;4.50;;;4.10;99.90;;;;;;5013758;28;20197;-75
2023/12/07 05:16:35;;;;;;;4.28;3.63;;;3.80;99.90;;;;;;5012269;28;20212;-75
2023/12/07 05:19:03;;;;;;;4.82;3.35;;;3.80;99.90;;;;;;5016687;28;20603;-75
2023/12/07 05:21:32;;;;;;;3.65;3.13;;;3.70;99.90;;;;;;5018691;28;20224;-75
2023/12/07 05:24:00;;;;;;;5.78;4.72;;;3.70;99.90;;;;;;5019771;28;20221;-75
2023/12/07 05:26:29;;;;;;;6.55;3.50;;;3.70;99.90;;;;;;5015477;28;20296;-77
2023/12/07 05:28:58;;;;;;;9.75;7.15;;;3.80;99.90;;;;;;5012946;28;20212;-74
2023/12/07 05:31:27;;;;;;;4.82;4.35;;;3.80;99.90;;;;;;5012318;28;20257;-75
2023/12/07 05:33:56;;;;;;;10.68;6.38;;;3.80;99.90;;;;;;5007950;28;20201;-75
2023/12/07 05:36:26;;;;;;;7.68;5.65;;;3.80;99.90;;;;;;5015385;28;20219;-75
2023/12/07 05:38:54;;;;;;;6.75;4.70;;;3.90;99.90;;;;;;5018543;28;20312;-75
2023/12/07 05:41:22;;;;;;;9.45;4.93;;;4.00;99.90;;;;;;5013907;28;20208;-74
2023/12/07 05:43:51;;;;;;;8.68;5.65;;;4.10;99.90;;;;;;5024389;28;20225;-70
2023/12/07 05:46:19;;;;;;;5.43;4.72;;;3.80;99.90;;;;;;5020066;28;20208;-73
2023/12/07 05:48:48;;;;;;;3.95;3.50;;;3.40;99.90;;;;;;5024873;28;20221;-71
2023/12/07 05:51:17;;;;;;;4.97;4.10;;;3.20;99.90;;;;;;5026398;28;20261;-75
2023/12/07 05:53:45;;;;;;;7.53;5.13;;;2.90;99.90;;;;;;5005461;28;20205;-72
2023/12/07 05:56:19;;;;;;;5.18;4.68;;;2.80;99.90;;;;;;5001998;28;20220;-71
2023/12/07 05:58:47;;;;;;;4.60;4.20;;;2.70;99.90;;;;;;5001032;28;20706;-74
2023/12/07 06:01:18;;;;;;;5.43;4.28;;;2.60;99.90;;;;;;5000091;28;20209;-72
2023/12/07 06:03:48;;;;;;;5.05;4.47;;;2.50;99.90;;;;;;5000073;28;20236;-73
2023/12/07 06:06:15;;;;;;;5.53;4.05;;;2.40;99.90;;;;;;4998759;28;20205;-74
2023/12/07 06:08:44;;;;;;;5.90;4.95;;;2.40;99.90;;;;;;4999916;28;20590;-72
2023/12/07 06:11:12;;;;;;;10.30;7.03;;;2.30;99.90;;;;;;4999074;28;20217;-71
2023/12/07 06:13:40;;;;;;;9.68;7.03;;;2.30;99.90;;;;;;4999135;28;20213;-72
2023/12/07 06:16:11;;;;;;;11.40;7.97;;;2.20;99.90;;;;;;4998281;28;20218;-72
2023/12/07 06:18:40;;;;;;;10.27;6.95;;;2.20;99.90;;;;;;4999120;28;20213;-72
2023/12/07 06:21:09;;;;;;;8.90;5.78;;;2.00;99.90;;;;;;4997831;28;20300;-72
2023/12/07 06:23:37;;;;;;;6.97;4.68;;;1.90;99.90;;;;;;4999030;28;20225;-75
2023/12/07 06:26:06;;;;;;;16.42;6.53;;;1.90;99.90;;;;;;4999308;28;20220;-74
2023/12/07 06:28:34;;;;;;;6.72;5.40;;;2.00;99.90;;;;;;4999280;28;20212;-73
2023/12/07 06:31:07;;;;;;;5.47;4.90;;;2.00;99.90;;;;;;4999005;28;20197;-73
2023/12/07 06:33:35;;;;;;;5.72;4.60;;;2.00;99.90;;;;;;4960889;28;20232;-74
2023/12/07 06:36:04;;;;;;;5.88;4.55;;;2.00;99.90;;;;;;4959553;28;20222;-72
2023/12/07 06:38:33;;;;;;;6.32;4.70;;;2.00;99.90;;;;;;4959150;28;20215;-73
2023/12/07 06:41:01;;;;;;;7.10;4.85;;;2.00;99.90;;;;;;4959303;28;20198;-71
2023/12/07 06:43:29;;;;;;;5.50;4.95;;;1.90;99.90;;;;;;4959357;28;20234;-73
2023/12/07 06:45:57;;;;;;;6.07;4.32;;;1.70;99.90;;;;;;4960332;28;20218;-73
2023/12/07 06:48:25;;;;;;;5.55;4.22;;;1.60;99.90;;;;;;4960625;28;20278;-71
2023/12/07 06:50:53;;;;;;;5.25;3.83;;;1.50;99.90;;;;;;4959057;28;20649;-73
2023/12/07 06:53:21;;;;;;;5.60;4.63;;;1.30;99.90;;;;;;4959717;28;20294;-71
2023/12/07 06:55:50;;;;;;;6.13;4.75;;;1.10;99.90;;;;;;4959237;28;20221;-72
2023/12/07 06:58:18;;;;;;;7.07;4.28;;;0.90;99.90;;;;;;4960227;28;20218;-71
2023/12/07 07:00:47;;;;;;;5.53;4.20;;;0.80;99.90;;;;;;4960325;28;20741;-71
2023/12/07 07:03:15;;;;;;;7.53;5.35;;;0.80;99.90;;;;;;4958601;28;20610;-72
2023/12/07 07:05:43;;;;;;;8.07;5.53;;;0.80;99.90;;;;;;4958887;28;20673;-70
2023/12/07 07:08:11;;;;;;;7.28;4.35;;;0.90;99.90;;;;;;4959809;28;20221;-70
2023/12/07 07:10:39;;;;;;;6.18;5.57;;;0.90;99.90;;;;;;4960064;28;20222;-70
2023/12/07 07:13:08;;;;;;;5.82;4.80;;;1.00;99.90;;;;;;4960161;28;20235;-70
2023/12/07 07:15:36;;;;;;;6.82;5.95;;;1.00;99.90;;;;;;4958979;28;20602;-71
2023/12/07 07:18:04;;;;;;;5.57;4.80;;;1.00;99.90;;;;;;4958632;28;20661;-71
2023/12/07 07:20:33;;;;;;;7.28;6.00;;;1.00;99.90;;;;;;4956908;28;20214;-71
2023/12/07 07:23:01;;;;;;;10.73;6.60;;;1.00;99.90;;;;;;4959150;28;20662;-71
2023/12/07 07:25:29;;;;;;;8.85;6.85;;;1.00;99.90;;;;;;4958155;28;20226;-71
2023/12/07 07:27:57;;;;;;;11.52;7.28;;;0.90;99.90;;;;;;4960688;28;20203;-70
2023/12/07 07:30:27;;;;;;;8.80;6.57;;;1.00;99.90;;;;;;4958728;28;20214;-70
2023/12/07 07:32:55;;;;;;;6.75;5.40;;;1.00;99.90;;;;;;4988185;28;20249;-70
2023/12/07 07:35:23;;;;;;;7.18;5.47;;;1.00;99.90;;;;;;4997591;28;20299;-70
2023/12/07 07:37:51;;;;;;;5.63;4.32;;;0.90;99.90;;;;;;4997950;28;20220;-72
2023/12/07 07:40:19;;;;;;;6.82;4.55;;;0.90;99.90;;;;;;4998173;28;20421;-70
2023/12/07 07:42:47;;;;;;;6.63;4.90;;;1.00;99.90;;;;;;4997316;28;20257;-70
2023/12/07 07:45:16;;;;;;;5.55;4.30;;;0.90;99.90;;;;;;4997971;28;20275;-73
2023/12/07 07:47:45;;;;;;;8.40;5.47;;;0.90;99.90;;;;;;4998065;28;20577;-71
2023/12/07 07:50:13;;;;;;;6.40;4.50;;;1.00;99.90;;;;;;4997936;28;20209;-70
2023/12/07 07:52:41;;;;;;;5.47;4.97;;;1.00;99.90;;;;;;4995400;28;20740;-70
2023/12/07 07:55:11;;;;;;;10.35;6.57;;;1.00;99.90;;;;;;4997428;28;20209;-70
2023/12/07 07:57:39;;;;;;;8.65;6.65;;;1.00;99.90;;;;;;4998645;28;20221;-70
2023/12/07 08:00:08;;;;;;;8.75;5.65;;;1.00;99.90;;;;;;4998706;28;20209;-70
2023/12/07 08:02:37;;;;;;;11.18;7.70;;;1.10;99.90;;;;;;4995974;28;20239;-69
2023/12/07 08:05:07;;;;;;;15.18;9.05;;;1.20;99.90;;;;;;4996604;28;20307;-70
2023/12/07 08:07:35;;;;;;;12.25;8.00;;;1.20;99.90;;;;;;4998205;28;20335;-72
2023/12/07 08:10:04;;;;;;;12.25;8.13;;;1.20;99.90;;;;;;5001245;28;20202;-72
2023/12/07 08:12:32;;;;;;;10.88;8.38;;;1.30;99.90;;;;;;4999572;28;20228;-73
2023/12/07 08:15:00;;;;;;;12.15;9.20;;;1.40;99.90;;;;;;5001834;28;20319;-71
2023/12/07 08:17:29;;;;;;;9.80;7.80;;;1.50;99.90;;;;;;5002114;28;20684;-70
2023/12/07 08:19:59;;;;;;;11.43;7.07;;;1.50;99.90;;;;;;5001718;28;20205;-70
2023/12/07 08:22:28;;;;;;;11.27;7.47;;;1.70;99.90;;;;;;5001610;28;20315;-74
2023/12/07 08:24:56;;;;;;;11.57;8.73;;;1.80;99.90;;;;;;4998978;28;20803;-71
2023/12/07 08:27:38;;;;;;;10.25;7.70;;;1.80;99.90;;;;;;5001083;28;20220;-73
2023/12/07 08:30:09;;;;;;;13.07;8.60;;;1.90;99.90;;;;;;5000135;28;20216;-72
2023/12/07 08:32:37;;;;;;;11.23;7.20;;;1.90;99.90;;;;;;5001614;28;20233;-70
2023/12/07 08:35:06;;;;;;;11.45;7.57;;;1.80;99.90;;;;;;5000222;28;20201;-73
2023/12/07 08:37:38;;;;;;;10.98;6.70;;;1.80;99.90;;;;;;5001853;28;20205;-70
2023/12/07 08:40:07;;;;;;;12.43;7.28;;;1.80;99.90;;;;;;5000269;28;20213;-72
2023/12/07 08:42:35;;;;;;;12.10;7.60;;;1.80;99.90;;;;;;5000832;28;20229;-72
2023/12/07 08:45:04;;;;;;;11.05;7.20;;;1.90;99.90;;;;;;5000064;28;20225;-69
2023/12/07 08:47:32;;;;;;;15.18;8.60;;;1.90;99.90;;;;;;5001210;28;20458;-73
2023/12/07 08:50:00;;;;;;;10.15;6.28;;;2.00;99.90;;;;;;4999972;28;20213;-72
2023/12/07 08:52:28;;;;;;;12.32;8.20;;;2.00;99.90;;;;;;5001136;28;20233;-71
2023/12/07 08:55:15;;;;;;;11.25;8.02;;;2.00;99.90;;;;;;5000337;28;20743;-69
2023/12/07 08:57:43;;;;;;;12.15;8.10;;;1.90;99.90;;;;;;5001622;28;20241;-70
2023/12/07 09:00:12;;;;;;;9.85;7.97;;;1.80;99.90;;;;;;5000781;28;20209;-69
2023/12/07 09:02:41;;;;;;;9.90;7.75;;;1.80;99.90;;;;;;5000987;28;20229;-70
2023/12/07 09:05:15;;;;;;;9.98;7.07;;;1.70;99.90;;;;;;5000494;28;20225;-69
2023/12/07 09:07:43;;;;;;;9.93;7.25;;;1.70;99.90;;;;;;5000444;28;20853;-70
2023/12/07 09:10:13;;;;;;;8.00;5.93;;;1.60;99.90;;;;;;5000481;28;20217;-70
2023/12/07 09:12:41;;;;;;;9.13;6.60;;;1.60;99.90;;;;;;5000389;28;20240;-70
2023/12/07 09:15:10;;;;;;;9.10;6.72;;;1.60;99.90;;;;;;4999443;28;20212;-73
2023/12/07 09:17:40;;;;;;;12.68;7.43;;;1.60;99.90;;;;;;5001136;28;20217;-71
2023/12/07 09:20:11;;;;;;;12.70;7.85;;;1.60;99.90;;;;;;4999744;28;20292;-70
2023/12/07 09:22:43;;;;;;;13.30;8.02;;;1.60;99.90;;;;;;5000087;28;20236;-70
2023/12/07 09:25:13;;;;;;;11.73;8.70;;;1.60;99.90;;;;;;4999034;28;20221;-70
2023/12/07 09:27:41;;;;;;;13.32;8.15;;;1.70;99.90;;;;;;5000437;28;20336;-70
2023/12/07 09:30:11;;;;;;;14.95;8.65;;;1.80;99.90;;;;;;5000419;28;20631;-70
2023/12/07 09:32:42;;;;;;;9.85;7.53;;;2.00;99.90;;;;;;4999963;28;20375;-71
2023/12/07 09:35:14;;;;;;;16.08;9.10;;;2.00;99.90;;;;;;4999379;28;20209;-71
2023/12/07 09:37:44;;;;;;;13.30;8.45;;;2.10;99.90;;;;;;5000840;28;20680;-70
2023/12/07 09:40:18;;;;;;;10.52;7.28;;;2.10;99.90;;;;;;4998189;28;20651;-70
2023/12/07 09:42:47;;;;;;;9.98;6.97;;;2.10;99.90;;;;;;4999236;28;20844;-71
2023/12/07 09:45:18;;;;;;;10.95;7.22;;;2.20;99.90;;;;;;4999777;28;20564;-72
2023/12/07 09:47:48;;;;;;;9.20;6.35;;;2.30;99.90;;;;;;5000558;28;20204;-69
2023/12/07 09:50:19;;;;;;;8.95;7.25;;;2.70;99.90;;;;;;5000320;28;20220;-70
2023/12/07 09:52:48;;;;;;;8.55;5.70;;;3.00;99.90;;;;;;5000343;28;20716;-69
2023/12/07 09:55:33;;;;;;;7.53;4.95;;;3.10;99.90;;;;;;4982016;28;20668;-70
2023/12/07 09:58:04;;;;;;;10.10;6.85;;;3.20;99.90;;;;;;4999840;28;20205;-71
2023/12/07 10:00:33;;;;;;;6.03;4.35;;;3.20;99.90;;;;;;4999554;28;20526;-71
2023/12/07 10:03:01;;;;;;;7.63;5.15;;;3.30;99.90;;;;;;4999829;28;20730;-69
2023/12/07 10:05:29;;;;;;;7.35;5.30;;;3.20;99.90;;;;;;4997862;28;20222;-69
2023/12/07 10:07:57;;;;;;;7.80;5.45;;;3.30;99.90;;;;;;4999737;28;20256;-69
2023/12/07 10:10:25;;;;;;;9.02;5.65;;;3.40;99.90;;;;;;4999618;28;20296;-70
2023/12/07 10:12:57;;;;;;;9.82;6.00;;;3.50;99.90;;;;;;5000042;28;20972;-70
2023/12/07 10:15:28;;;;;;;8.38;5.30;;;3.50;99.90;;;;;;4999562;28;20691;-71
2023/12/07 10:17:58;;;;;;;9.05;6.35;;;3.60;99.90;;;;;;4999698;28;20213;-69
2023/12/07 10:20:28;;;;;;;10.75;7.07;;;3.60;99.90;;;;;;4999066;28;20217;-73
2023/12/07 10:23:04;;;;;;;6.72;5.18;;;3.60;99.90;;;;;;4999604;28;20232;-71
2023/12/07 10:25:33;;;;;;;9.00;7.20;;;3.50;99.90;;;;;;4999037;28;20243;-72
2023/12/07 10:28:06;;;;;;;9.70;6.53;;;3.20;99.90;;;;;;4999564;28;20229;-69
2023/12/07 10:30:35;;;;;;;8.70;6.75;;;2.70;99.90;;;;;;4998173;28;20304;-69
2023/12/07 10:33:04;;;;;;;9.05;7.28;;;2.50;99.90;;;;;;4998677;28;20330;-72
2023/12/07 10:35:33;;;;;;;10.55;7.50;;;2.30;99.90;;;;;;4999613;28;20867;-70
2023/12/07 10:38:01;;;;;;;11.57;7.40;;;2.20;99.90;;;;;;4999729;28;20217;-69
2023/12/07 10:40:29;;;;;;;12.45;8.20;;;2.10;99.90;;;;;;4982119;28;20209;-69
2023/12/07 10:42:58;;;;;;;13.88;9.05;;;2.10;99.90;;;;;;4997722;28;20770;-71
2023/12/07 10:45:31;;;;;;;18.75;8.23;;;2.20;99.90;;;;;;4998238;28;20690;-69
2023/12/07 10:48:04;;;;;;;11.27;7.18;;;2.00;99.90;;;;;;4998597;28;20217;-70
2023/12/07 10:50:36;;;;;;;15.10;10.63;;;1.90;99.90;;;;;;4999456;28;20263;-69
2023/12/07 10:53:09;;;;;;;12.65;8.50;;;1.80;99.90;;;;;;4998758;28;20232;-70
2023/12/07 10:55:44;;;;;;;18.75;8.65;;;1.80;99.90;;;;;;4998908;28;20202;-69
2023/12/07 10:58:14;;;;;;;13.07;8.88;;;1.80;99.90;;;;;;4998510;28;20305;-71
2023/12/07 11:00:46;;;;;;;12.32;8.02;;;1.80;99.90;;;;;;4999040;28;20324;-69
2023/12/07 11:03:17;;;;;;;15.75;9.10;;;1.80;99.90;;;;;;4999637;28;20393;-71
2023/12/07 11:05:47;;;;;;;11.82;8.23;;;1.60;99.90;;;;;;4998831;28;20226;-71
2023/12/07 11:08:22;;;;;;;10.43;6.25;;;1.60;99.90;;;;;;4998417;28;20201;-71
2023/12/07 11:11:00;;;;;;;13.63;8.63;;;1.50;99.90;;;;;;4998083;28;20246;-70
2023/12/07 11:13:31;;;;;;;10.77;7.47;;;1.60;99.90;;;;;;4996845;28;20612;-69
2023/12/07 11:16:01;;;;;;;12.60;7.15;;;1.70;99.90;;;;;;4997812;28;20201;-72
2023/12/07 11:18:29;;;;;;;15.07;8.80;;;1.90;99.90;;;;;;4998440;28;20228;-69
2023/12/07 11:20:58;;;;;;;12.30;7.88;;;2.00;99.90;;;;;;4998606;28;20212;-70
2023/12/07 11:23:28;;;;;;;12.98;8.68;;;2.10;99.90;;;;;;4996082;28;20271;-71
2023/12/07 11:25:57;;;;;;;14.68;9.80;;;2.20;99.90;;;;;;4998185;28;20736;-71
2023/12/07 11:28:38;;;;;;;14.30;7.60;;;2.30;99.90;;;;;;4996875;28;20253;-70
2023/12/07 11:31:09;;;;;;;11.57;7.20;;;2.30;99.90;;;;;;4998183;28;20791;-68
2023/12/07 11:33:39;;;;;;;10.57;6.68;;;2.40;99.90;;;;;;4976795;28;20210;-72
2023/12/07 11:36:09;;;;;;;13.98;7.78;;;2.50;99.90;;;;;;4977266;28;20194;-72
2023/12/07 11:38:38;;;;;;;11.45;7.13;;;2.50;99.90;;;;;;4978291;28;20738;-68
2023/12/07 11:41:06;;;;;;;13.35;6.90;;;2.50;99.90;;;;;;4978647;28;21056;-72
2023/12/07 11:43:45;;;;;;;12.80;8.68;;;2.50;99.90;;;;;;4977674;28;20691;-72
2023/12/07 11:46:15;;;;;;;13.50;9.13;;;2.50;99.90;;;;;;4982095;28;20230;-68
2023/12/07 11:48:49;;;;;;;12.35;8.55;;;2.50;99.90;;;;;;4982021;28;20670;-68
2023/12/07 11:51:18;;;;;;;14.10;8.88;;;2.60;99.90;;;;;;4981271;28;20322;-72
2023/12/07 11:53:48;;;;;;;20.25;8.52;;;2.70;99.90;;;;;;4982997;28;21047;-71
2023/12/07 11:56:21;;;;;;;16.02;8.20;;;2.80;99.90;;;;;;4982225;28;20803;-69
2023/12/07 11:58:50;;;;;;;16.92;8.65;;;2.90;99.90;;;;;;4982786;28;20209;-69
2023/12/07 12:01:20;;;;;;;18.55;10.35;;;2.90;99.90;;;;;;4980949;28;20379;-71
2023/12/07 12:03:48;;;;;;;14.18;9.13;;;2.90;99.90;;;;;;4982280;28;20202;-71
2023/12/07 12:06:17;;;;;;;14.30;9.23;;;3.00;99.90;;;;;;4980647;28;20234;-69
2023/12/07 12:08:45;;;;;;;14.35;8.70;;;3.00;99.90;;;;;;4981914;28;20210;-72
2023/12/07 12:11:13;;;;;;;13.38;8.25;;;3.00;99.90;;;;;;4981566;28;20241;-71
2023/12/07 12:13:41;;;;;;;14.30;7.35;;;3.00;99.90;;;;;;4981131;28;20768;-69
2023/12/07 12:16:10;;;;;;;14.32;8.73;;;3.00;99.90;;;;;;4981671;28;20218;-70
2023/12/07 12:18:39;;;;;;;12.93;8.38;;;2.90;99.90;;;;;;4982437;28;20697;-71
2023/12/07 12:21:09;;;;;;;14.23;9.95;;;2.90;99.90;;;;;;4982087;28;20218;-72
2023/12/07 12:23:39;;;;;;;15.80;7.90;;;2.80;99.90;;;;;;4981728;28;20213;-69
2023/12/07 12:26:09;;;;;;;11.85;8.48;;;2.80;99.90;;;;;;4981221;28;20210;-68
2023/12/07 12:28:42;;;;;;;14.32;10.13;;;2.80;99.90;;;;;;4981444;28;20256;-69
2023/12/07 12:31:12;;;;;;;14.63;9.10;;;2.80;99.90;;;;;;4981630;28;20693;-69
2023/12/07 12:33:41;;;;;;;17.45;9.50;;;2.80;99.90;;;;;;4961847;28;20306;-69
2023/12/07 12:36:10;;;;;;;17.58;9.98;;;2.80;99.90;;;;;;4962221;28;20736;-69
2023/12/07 12:38:40;;;;;;;13.50;7.72;;;2.70;99.90;;;;;;4960875;28;20519;-69
2023/12/07 12:41:11;;;;;;;16.70;8.75;;;2.60;99.90;;;;;;4962488;28;20207;-68
2023/12/07 12:43:42;;;;;;;14.40;8.02;;;2.50;99.90;;;;;;4962837;28;20206;-71
2023/12/07 12:46:11;;;;;;;15.65;8.50;;;2.50;99.90;;;;;;4961003;28;20238;-68
2023/12/07 12:48:56;;;;;;;18.65;9.88;;;2.50;99.90;;;;;;4961217;28;20563;-69
2023/12/07 12:51:26;;;;;;;17.17;8.63;;;2.60;99.90;;;;;;4963088;28;20211;-72
2023/12/07 12:53:55;;;;;;;15.00;8.52;;;2.60;99.90;;;;;;4961176;28;20215;-71
2023/12/07 12:56:24;;;;;;;17.45;10.10;;;2.70;99.90;;;;;;4962002;28;20230;-69
2023/12/07 12:58:55;;;;;;;19.45;9.77;;;2.70;99.90;;;;;;4961639;28;20210;-70
2023/12/07 13:01:29;;;;;;;15.13;9.65;;;2.50;99.90;;;;;;4961779;28;20392;-69
2023/12/07 13:03:59;;;;;;;15.82;9.38;;;2.50;99.90;;;;;;4961548;28;20266;-71